createdAt,value
2024-03-15T00:00:27.248Z,11.50
2024-03-15T00:03:18.156Z,11.50
2024-03-15T00:06:06.900Z,11.60
2024-03-15T00:08:57.100Z,11.50
2024-03-15T00:11:47.820Z,11.50
2024-03-15T00:14:35.484Z,11.40
2024-03-15T00:17:23.954Z,11.40
2024-03-15T00:20:12.668Z,11.40
2024-03-15T00:23:01.490Z,11.40
2024-03-15T00:25:49.336Z,11.40
2024-03-15T00:28:38.217Z,11.40
2024-03-15T00:31:24.706Z,11.40
2024-03-15T00:34:14.554Z,11.40
2024-03-15T00:37:02.753Z,11.30
2024-03-15T00:39:53.875Z,11.30
2024-03-15T00:42:41.828Z,11.30
2024-03-15T00:45:34.232Z,11.30
2024-03-15T00:48:21.437Z,11.30
2024-03-15T00:51:10.541Z,11.30
2024-03-15T00:54:00.389Z,11.20
2024-03-15T00:56:52.762Z,11.20
2024-03-15T00:59:41.944Z,11.20
2024-03-15T01:02:32.203Z,11.20
2024-03-15T01:05:20.033Z,11.20
2024-03-15T01:08:10.007Z,11.10
2024-03-15T01:10:59.279Z,11.20
2024-03-15T01:13:48.574Z,11.10
2024-03-15T01:16:37.712Z,11.10
2024-03-15T01:19:27.661Z,11.10
2024-03-15T01:22:21.700Z,11.10
2024-03-15T01:25:10.008Z,11.10
2024-03-15T01:27:57.987Z,11.10
2024-03-15T01:30:49.329Z,11.10
2024-03-15T01:33:37.334Z,11.10
2024-03-15T01:36:24.797Z,11.10
2024-03-15T01:39:13.728Z,11.10
2024-03-15T01:42:03.337Z,11.20
2024-03-15T01:44:55.544Z,11.20
2024-03-15T01:47:42.789Z,11.10
2024-03-15T01:50:29.853Z,11.20
2024-03-15T01:53:20.802Z,11.10
2024-03-15T01:56:08.630Z,11.10
2024-03-15T01:58:57.461Z,11.10
2024-03-15T02:01:45.433Z,11.10
2024-03-15T02:04:37.160Z,11.10
2024-03-15T02:07:28.795Z,11.10
2024-03-15T02:10:17.187Z,11.00
2024-03-15T02:13:06.022Z,11.00
2024-03-15T02:15:54.244Z,11.00
2024-03-15T02:18:42.082Z,11.00
2024-03-15T02:21:32.140Z,11.00
2024-03-15T02:24:22.990Z,11.00
2024-03-15T02:27:15.407Z,11.00
2024-03-15T02:30:03.089Z,11.00
2024-03-15T02:32:50.579Z,11.00
2024-03-15T02:35:38.780Z,10.90
2024-03-15T02:38:28.274Z,10.90
2024-03-15T02:41:20.681Z,10.90
2024-03-15T02:44:08.836Z,10.90
2024-03-15T02:46:58.225Z,10.90
2024-03-15T02:49:45.938Z,10.80
2024-03-15T02:52:36.273Z,10.90
2024-03-15T02:55:23.382Z,10.80
2024-03-15T02:58:12.869Z,10.90
2024-03-15T03:01:01.594Z,10.80
2024-03-15T03:03:51.108Z,10.80
2024-03-15T03:06:41.881Z,10.90
2024-03-15T03:09:30.112Z,10.80
2024-03-15T03:12:19.046Z,10.80
2024-03-15T03:15:07.622Z,10.80
2024-03-15T03:18:03.521Z,10.70
2024-03-15T03:20:54.324Z,10.70
2024-03-15T03:23:42.058Z,10.70
2024-03-15T03:26:31.014Z,10.70
2024-03-15T03:29:19.225Z,10.70
2024-03-15T03:32:11.538Z,10.70
2024-03-15T03:35:00.604Z,10.70
2024-03-15T03:37:48.656Z,10.70
2024-03-15T03:40:37.320Z,10.70
2024-03-15T03:43:24.288Z,10.70
2024-03-15T03:46:13.918Z,10.70
2024-03-15T03:49:00.959Z,10.70
2024-03-15T03:51:50.192Z,10.70
2024-03-15T03:54:41.035Z,10.60
2024-03-15T03:57:39.431Z,10.60
2024-03-15T04:00:32.651Z,10.50
2024-03-15T04:03:20.369Z,10.40
2024-03-15T04:06:08.107Z,10.50
2024-03-15T04:08:57.679Z,10.40
2024-03-15T04:11:45.153Z,10.40
2024-03-15T04:14:43.383Z,10.40
2024-03-15T04:17:39.489Z,10.50
2024-03-15T04:20:29.430Z,10.40
2024-03-15T04:23:22.710Z,10.40
2024-03-15T04:26:11.693Z,10.40
2024-03-15T04:29:01.660Z,10.40
2024-03-15T04:31:50.278Z,10.40
2024-03-15T04:34:38.534Z,10.40
2024-03-15T04:37:26.331Z,10.30
2024-03-15T04:40:16.056Z,10.30
2024-03-15T04:43:05.333Z,10.20
2024-03-15T04:45:53.675Z,10.20
2024-03-15T04:48:41.803Z,10.20
2024-03-15T04:51:29.330Z,10.10
2024-03-15T04:54:17.692Z,10.20
2024-03-15T04:57:05.916Z,10.20
2024-03-15T04:59:55.806Z,10.30
2024-03-15T05:02:44.934Z,10.30
2024-03-15T05:05:31.940Z,10.30
2024-03-15T05:08:19.007Z,10.30
2024-03-15T05:11:11.769Z,10.30
2024-03-15T05:13:58.902Z,10.40
2024-03-15T05:16:55.339Z,10.40
2024-03-15T05:19:43.722Z,10.30
2024-03-15T05:22:32.592Z,10.40
2024-03-15T05:25:20.212Z,10.40
2024-03-15T05:28:08.779Z,10.40
2024-03-15T05:30:57.446Z,10.40
2024-03-15T05:33:44.395Z,10.50
2024-03-15T05:36:32.832Z,10.50
2024-03-15T05:39:20.363Z,10.50
2024-03-15T05:42:08.639Z,10.50
2024-03-15T05:44:55.232Z,10.50
2024-03-15T05:47:45.679Z,10.60
2024-03-15T05:50:33.852Z,10.60
2024-03-15T05:53:23.070Z,10.60
2024-03-15T05:56:10.648Z,10.60
2024-03-15T05:58:59.394Z,10.70
2024-03-15T06:01:47.721Z,10.70
2024-03-15T06:04:36.699Z,10.70
2024-03-15T06:07:24.385Z,10.80
2024-03-15T06:10:11.808Z,10.80
2024-03-15T06:12:59.183Z,10.90
2024-03-15T06:15:46.606Z,10.90
2024-03-15T06:18:36.154Z,11.00
2024-03-15T06:21:34.641Z,11.00
2024-03-15T06:24:24.217Z,11.10
2024-03-15T06:27:14.966Z,11.20
2024-03-15T06:30:06.045Z,11.20
2024-03-15T06:33:00.777Z,11.20
2024-03-15T06:35:54.322Z,11.40
2024-03-15T06:38:52.730Z,11.50
2024-03-15T06:41:42.590Z,11.50
2024-03-15T06:44:48.993Z,11.60
2024-03-15T06:47:40.197Z,11.60
2024-03-15T06:50:49.389Z,11.70
2024-03-15T06:53:36.151Z,11.80
2024-03-15T06:56:23.774Z,11.80
2024-03-15T06:59:16.441Z,11.90
2024-03-15T07:02:04.387Z,11.90
2024-03-15T07:04:58.586Z,12.00
2024-03-15T07:07:45.629Z,12.10
2024-03-15T07:10:32.778Z,12.10
2024-03-15T07:13:21.083Z,12.20
2024-03-15T07:16:09.768Z,12.20
2024-03-15T07:18:59.653Z,12.30
2024-03-15T07:21:49.118Z,12.40
2024-03-15T07:24:37.755Z,12.50
2024-03-15T07:27:26.970Z,12.50
2024-03-15T07:30:14.733Z,12.60
2024-03-15T07:33:05.704Z,12.60
2024-03-15T07:35:55.759Z,12.80
2024-03-15T07:38:42.903Z,13.20
2024-03-15T07:41:33.662Z,13.40
2024-03-15T07:44:21.331Z,13.70
2024-03-15T07:47:10.604Z,13.80
2024-03-15T07:50:01.638Z,13.90
2024-03-15T07:52:52.272Z,14.20
2024-03-15T07:55:40.291Z,14.40
2024-03-15T07:58:28.313Z,14.60
2024-03-15T08:01:16.201Z,14.80
2024-03-15T08:04:04.297Z,15.00
2024-03-15T08:06:52.527Z,15.20
2024-03-15T08:09:42.196Z,15.20
2024-03-15T08:12:30.559Z,15.40
2024-03-15T08:15:18.655Z,15.50
2024-03-15T08:18:10.101Z,15.70
2024-03-15T08:20:58.297Z,15.80
2024-03-15T08:23:47.844Z,15.90
2024-03-15T08:26:36.029Z,16.00
2024-03-15T08:29:24.384Z,15.90
2024-03-15T08:32:12.674Z,15.70
2024-03-15T08:35:01.241Z,15.60
2024-03-15T08:37:48.982Z,15.60
2024-03-15T08:40:38.070Z,15.80
2024-03-15T08:43:26.059Z,16.10
2024-03-15T08:46:15.657Z,16.50
2024-03-15T08:49:03.803Z,16.90
2024-03-15T08:54:44.491Z,17.60
2024-03-15T08:57:31.863Z,17.70
2024-03-15T09:00:19.296Z,17.80
2024-03-15T09:03:11.050Z,18.00
2024-03-15T09:06:01.059Z,18.00
2024-03-15T09:08:56.023Z,18.30
2024-03-15T09:11:44.517Z,18.30
2024-03-15T09:14:33.702Z,18.40
2024-03-15T09:17:20.420Z,18.50
2024-03-15T09:20:20.065Z,18.50
2024-03-15T09:23:07.688Z,18.60
2024-03-15T09:25:57.478Z,18.50
2024-03-15T09:28:48.466Z,18.40
2024-03-15T09:31:52.482Z,18.40
2024-03-15T09:34:49.574Z,18.40
2024-03-15T09:37:44.443Z,18.40
2024-03-15T09:40:32.201Z,18.40
2024-03-15T09:43:20.795Z,18.50
2024-03-15T09:46:09.864Z,18.50
2024-03-15T09:48:58.175Z,18.70
2024-03-15T09:51:45.256Z,18.90
2024-03-15T09:54:35.556Z,19.10
2024-03-15T09:57:24.866Z,19.40
2024-03-15T10:00:15.142Z,19.80
2024-03-15T10:03:02.117Z,20.00
2024-03-15T10:05:50.707Z,20.20
2024-03-15T10:08:39.264Z,20.50
2024-03-15T10:11:26.987Z,20.50
2024-03-15T10:14:14.169Z,20.30
2024-03-15T10:17:02.074Z,20.20
2024-03-15T10:19:49.390Z,20.20
2024-03-15T10:22:40.383Z,20.20
2024-03-15T10:25:31.777Z,20.30
2024-03-15T10:28:21.716Z,20.30
2024-03-15T10:31:09.758Z,20.30
2024-03-15T10:33:57.215Z,20.30
2024-03-15T10:36:44.910Z,20.30
2024-03-15T10:39:32.134Z,20.20
2024-03-15T10:42:21.912Z,20.30
2024-03-15T10:45:12.819Z,20.30
2024-03-15T10:48:02.403Z,20.30
2024-03-15T10:50:50.909Z,20.20
2024-03-15T10:53:38.824Z,20.20
2024-03-15T10:56:27.428Z,20.10
2024-03-15T10:59:14.765Z,20.10
2024-03-15T11:02:04.256Z,19.90
2024-03-15T11:04:55.405Z,19.70
2024-03-15T11:07:43.446Z,19.60
2024-03-15T11:10:34.819Z,19.40
2024-03-15T11:13:21.476Z,19.40
2024-03-15T11:16:29.405Z,19.30
2024-03-15T11:19:17.124Z,19.20
2024-03-15T11:22:05.984Z,19.20
2024-03-15T11:24:54.864Z,19.30
2024-03-15T11:27:58.687Z,19.30
2024-03-15T11:30:46.939Z,19.30
2024-03-15T11:33:34.910Z,19.40
2024-03-15T11:36:23.779Z,19.50
2024-03-15T11:39:12.415Z,19.50
2024-03-15T11:42:06.108Z,19.50
2024-03-15T11:44:54.115Z,19.60
2024-03-15T11:47:41.569Z,19.60
2024-03-15T11:50:29.515Z,19.60
2024-03-15T11:53:19.639Z,19.60
2024-03-15T11:56:08.457Z,19.60
2024-03-15T11:59:04.160Z,19.70
2024-03-15T12:01:52.545Z,19.60
2024-03-15T12:04:39.843Z,19.50
2024-03-15T12:07:27.109Z,19.50
2024-03-15T12:10:16.420Z,19.30
2024-03-15T12:13:03.787Z,19.20
2024-03-15T12:15:52.334Z,19.10
2024-03-15T12:18:40.245Z,19.00
2024-03-15T12:21:28.005Z,18.90
2024-03-15T12:24:15.473Z,18.80
2024-03-15T12:27:03.122Z,18.80
2024-03-15T15:10:12.448Z,18.10
2024-03-15T15:13:00.887Z,18.00
2024-03-15T15:15:52.118Z,18.00
2024-03-15T15:18:41.103Z,17.90
2024-03-15T15:21:28.487Z,17.90
2024-03-15T15:24:17.446Z,17.80
2024-03-15T15:27:05.261Z,17.80
2024-03-15T15:29:52.539Z,17.80
2024-03-15T15:32:40.766Z,17.80
2024-03-15T15:35:28.868Z,17.80
2024-03-15T15:38:17.873Z,17.90
2024-03-15T15:41:06.461Z,17.70
2024-03-15T15:43:53.745Z,17.80
2024-03-15T15:46:40.572Z,17.70
2024-03-15T15:49:30.539Z,17.70
2024-03-15T15:52:21.588Z,17.60
2024-03-15T15:55:24.041Z,17.60
2024-03-15T15:58:12.615Z,17.50
2024-03-15T16:01:00.440Z,17.50
2024-03-15T16:03:49.127Z,17.40
2024-03-15T16:06:36.345Z,17.40
2024-03-15T16:09:24.766Z,17.40
2024-03-15T17:42:31.100Z,16.20
2024-03-15T17:45:21.028Z,16.20
2024-03-15T17:48:13.670Z,16.00
2024-03-15T17:51:01.160Z,15.90
2024-03-15T17:53:51.989Z,15.80
2024-03-15T17:56:40.920Z,15.80
2024-03-15T17:59:28.183Z,15.70
2024-03-15T18:02:17.198Z,15.70
2024-03-15T18:05:04.895Z,15.70
2024-03-15T18:07:52.085Z,15.60
2024-03-15T18:10:41.519Z,15.50
2024-03-15T18:13:28.845Z,15.50
2024-03-15T18:16:16.402Z,15.40
2024-03-15T18:19:04.204Z,15.40
2024-03-15T18:21:52.355Z,15.40
2024-03-15T18:24:39.272Z,15.30
2024-03-15T18:27:28.897Z,15.30
2024-03-15T18:30:16.571Z,15.30
2024-03-15T18:33:05.066Z,15.20
2024-03-15T18:35:54.376Z,15.10
2024-03-15T18:38:42.928Z,15.10
2024-03-15T18:41:32.131Z,15.00
2024-03-15T18:44:19.397Z,15.00
2024-03-15T18:47:07.328Z,15.00
2024-03-15T18:49:54.874Z,15.00
2024-03-15T18:52:42.071Z,15.00
2024-03-15T18:55:31.635Z,15.00
2024-03-15T18:58:20.260Z,14.90
2024-03-15T19:01:12.094Z,14.90
2024-03-15T19:04:01.429Z,14.90
2024-03-15T19:06:50.182Z,14.80
2024-03-15T19:09:40.835Z,14.80
2024-03-15T19:12:29.900Z,14.80
2024-03-15T19:15:17.551Z,14.80
2024-03-15T19:18:07.016Z,14.80
2024-03-15T19:20:54.469Z,14.70
2024-03-15T19:23:42.318Z,14.70
2024-03-15T19:26:29.389Z,14.60
2024-03-15T19:29:19.306Z,14.70
2024-03-15T19:32:10.115Z,14.60
2024-03-15T19:35:01.228Z,14.60
2024-03-15T19:37:49.240Z,14.60
2024-03-15T19:40:36.402Z,14.60
2024-03-15T19:43:25.447Z,14.50
2024-03-15T19:46:14.306Z,14.50
2024-03-15T19:49:02.059Z,14.50
2024-03-15T19:51:52.165Z,14.40
2024-03-15T19:54:39.791Z,14.50
2024-03-15T19:57:28.566Z,14.40
2024-03-15T20:00:16.015Z,14.40
2024-03-15T20:03:05.676Z,14.40
2024-03-15T20:05:53.740Z,14.40
2024-03-15T20:08:43.342Z,14.40
2024-03-15T20:11:32.055Z,14.40
2024-03-15T20:14:23.969Z,14.40
2024-03-15T20:17:12.134Z,14.30
2024-03-15T20:20:00.038Z,14.40
2024-03-15T20:22:49.374Z,14.40
2024-03-15T20:25:36.686Z,14.40
2024-03-15T20:28:25.018Z,14.30
2024-03-15T20:31:13.817Z,14.30
2024-03-15T20:34:02.746Z,14.30
2024-03-15T20:36:49.967Z,14.20
2024-03-15T20:39:43.136Z,14.30
2024-03-15T20:42:36.466Z,14.20
2024-03-15T20:45:24.411Z,14.20
2024-03-15T20:48:13.802Z,14.20
2024-03-15T20:51:01.186Z,14.10
2024-03-15T20:53:53.396Z,14.20
2024-03-15T20:56:42.233Z,14.20
2024-03-15T20:59:30.717Z,14.10
2024-03-15T21:02:17.733Z,14.20
2024-03-15T21:05:13.867Z,14.20
2024-03-15T21:08:04.387Z,14.20
2024-03-15T21:10:54.896Z,14.30
2024-03-15T21:13:42.399Z,14.20
2024-03-15T21:16:32.936Z,14.20
2024-03-15T21:19:22.778Z,14.20
2024-03-15T21:22:10.376Z,14.20
2024-03-15T21:24:58.867Z,14.20
2024-03-15T21:27:46.297Z,14.30
2024-03-15T21:30:34.279Z,14.30
2024-03-15T21:33:22.724Z,14.30
2024-03-15T21:36:12.207Z,14.30
2024-03-15T21:39:05.844Z,14.20
2024-03-15T21:41:52.934Z,14.20
2024-03-15T21:44:43.381Z,14.10
2024-03-15T21:47:32.019Z,14.10
2024-03-15T21:50:19.714Z,14.00
2024-03-15T21:53:07.456Z,13.90
2024-03-15T21:55:55.054Z,13.90
2024-03-15T21:58:44.024Z,13.90
2024-03-15T22:01:37.961Z,13.90
2024-03-15T22:04:34.104Z,13.80
2024-03-15T22:07:23.201Z,13.80
2024-03-15T22:10:12.368Z,13.70
2024-03-15T22:13:06.254Z,13.70
2024-03-15T22:15:57.267Z,13.60
2024-03-15T22:18:45.977Z,13.60
2024-03-15T22:21:33.960Z,13.60
2024-03-15T22:24:36.609Z,13.50
2024-03-15T22:27:25.121Z,13.50
2024-03-15T22:30:14.947Z,13.50
2024-03-15T22:33:02.382Z,13.50
2024-03-15T22:35:52.740Z,13.50
2024-03-15T22:38:39.671Z,13.50
2024-03-15T22:41:38.509Z,13.40
2024-03-15T22:44:26.422Z,13.40
2024-03-15T22:47:13.974Z,13.40
2024-03-15T22:50:01.976Z,13.30
2024-03-15T22:52:52.038Z,13.40
2024-03-15T22:55:40.029Z,13.40
2024-03-15T22:58:28.638Z,13.40
2024-03-15T23:01:19.279Z,13.30
2024-03-15T23:04:09.808Z,13.20
2024-03-15T23:06:58.720Z,13.20
2024-03-15T23:09:46.357Z,13.20
2024-03-15T23:12:34.265Z,13.20
2024-03-15T23:15:21.947Z,13.20
2024-03-15T23:18:12.404Z,13.10
2024-03-15T23:21:02.533Z,13.10
2024-03-15T23:23:53.019Z,13.20
2024-03-15T23:26:40.617Z,13.10
2024-03-15T23:29:29.983Z,13.10
2024-03-15T23:32:19.248Z,13.10
2024-03-15T23:35:09.557Z,13.10
2024-03-15T23:37:58.104Z,13.20
2024-03-15T23:40:45.313Z,13.30
2024-03-15T23:43:34.270Z,13.30
2024-03-15T23:46:21.572Z,13.30
2024-03-15T23:49:12.087Z,13.30
2024-03-15T23:51:59.371Z,13.30
2024-03-15T23:54:46.607Z,13.30
2024-03-15T23:57:34.931Z,13.30
